Time;durP1;ratioP1;P1;durP2;ratioP2;P2;SDS_P1;SDS_P2;PMS_P1;PMS_P2;Temp;Humidity;BMP_temperature;BMP_pressure;BME280_temperature;BME280_humidity;BME280_pressure;Samples;Min_cycle;Max_cycle;Signal;HPM_P1;HPM_P2
2022/10/13 00:00:57;;;;;;;;;;;17.70;1.00;;;;;;5036835;28;19982;-50
2022/10/13 00:03:24;;;;;;;;;;;17.70;1.00;;;;;;5036421;28;20324;-54
2022/10/13 00:05:51;;;;;;;;;;;17.70;1.00;;;;;;5036506;28;20367;-54
2022/10/13 00:08:19;;;;;;;;;;;17.70;1.00;;;;;;5036547;28;19921;-52
2022/10/13 00:10:47;;;;;;;;;;;17.70;1.00;;;;;;5036580;28;20016;-53
2022/10/13 00:13:16;;;;;;;;;;;17.70;1.00;;;;;;5036056;28;19927;-55
2022/10/13 00:15:44;;;;;;;;;;;17.70;1.00;;;;;;5036716;28;19956;-50
2022/10/13 00:18:11;;;;;;;;;;;17.70;1.00;;;;;;5036649;28;19921;-52
2022/10/13 00:20:45;;;;;;;;;;;17.70;1.00;;;;;;5036377;28;20302;-54
2022/10/13 00:23:12;;;;;;;;;;;17.70;1.00;;;;;;5036053;28;19921;-55
2022/10/13 00:25:41;;;;;;;;;;;17.60;1.00;;;;;;5036177;28;19928;-53
2022/10/13 00:28:07;;;;;;;;;;;17.70;1.00;;;;;;5036752;28;19921;-53
2022/10/13 00:30:35;;;;;;;;;;;17.70;1.00;;;;;;5036621;28;20377;-53
2022/10/13 00:33:01;;;;;;;;;;;17.60;1.00;;;;;;5035991;28;19925;-55
2022/10/13 00:35:28;;;;;;;;;;;17.60;1.00;;;;;;5036035;28;19968;-54
2022/10/13 00:37:55;;;;;;;;;;;17.60;1.00;;;;;;5036091;28;19928;-53
2022/10/13 00:40:22;;;;;;;;;;;17.70;1.00;;;;;;5036208;28;19921;-51
2022/10/13 00:42:49;;;;;;;;;;;17.60;1.00;;;;;;5035648;28;19921;-55
2022/10/13 00:45:18;;;;;;;;;;;17.60;1.00;;;;;;5036303;28;19925;-53
2022/10/13 00:47:46;;;;;;;;;;;17.60;1.00;;;;;;5035540;28;20373;-54
2022/10/13 00:50:15;;;;;;;;;;;17.60;1.00;;;;;;5035853;28;19925;-55
2022/10/13 00:52:44;;;;;;;;;;;17.60;1.00;;;;;;5035406;28;19979;-53
2022/10/13 00:55:12;;;;;;;;;;;17.60;1.00;;;;;;5036094;28;19983;-52
2022/10/13 00:57:41;;;;;;;;;;;17.60;1.00;;;;;;5035726;28;19921;-54
2022/10/13 01:00:08;;;;;;;;;;;17.60;1.00;;;;;;5036093;28;19967;-51
2022/10/13 01:02:37;;;;;;;;;;;17.60;1.00;;;;;;5035258;28;19967;-58
2022/10/13 01:05:05;;;;;;;;;;;17.60;1.00;;;;;;5035786;28;20347;-55
2022/10/13 01:07:33;;;;;;;;;;;17.60;1.00;;;;;;5035477;28;19921;-52
2022/10/13 01:10:01;;;;;;;;;;;17.60;1.00;;;;;;5035469;28;19935;-54
2022/10/13 01:12:27;;;;;;;;;;;17.60;1.00;;;;;;5035217;28;19921;-52
2022/10/13 01:15:13;;;;;;;;;;;17.60;1.00;;;;;;5035332;28;19925;-57
2022/10/13 01:17:46;;;;;;;;;;;17.60;1.00;;;;;;5035526;28;19979;-54
2022/10/13 01:20:13;;;;;;;;;;;17.60;1.00;;;;;;5035497;28;19921;-51
2022/10/13 01:22:46;;;;;;;;;;;17.60;1.00;;;;;;5035238;28;19949;-53
2022/10/13 01:25:32;;;;;;;;;;;17.60;1.00;;;;;;5035394;28;19921;-51
2022/10/13 01:27:58;;;;;;;;;;;17.60;1.00;;;;;;5035226;28;19921;-53
2022/10/13 01:30:25;;;;;;;;;;;17.60;1.00;;;;;;5035384;28;19979;-52
2022/10/13 01:32:58;;;;;;;;;;;17.60;1.00;;;;;;5035213;28;20402;-54
2022/10/13 01:35:36;;;;;;;;;;;17.60;1.00;;;;;;5035090;28;19924;-56
2022/10/13 01:38:22;;;;;;;;;;;17.60;1.00;;;;;;5034813;28;19921;-55
2022/10/13 01:40:58;;;;;;;;;;;17.60;1.00;;;;;;5034757;28;19928;-52
2022/10/13 01:43:28;;;;;;;;;;;17.60;1.00;;;;;;5034721;28;19928;-55
2022/10/13 01:46:05;;;;;;;;;;;17.60;1.00;;;;;;5034968;28;20289;-50
2022/10/13 01:48:33;;;;;;;;;;;17.60;1.00;;;;;;5035231;28;19961;-53
2022/10/13 01:51:00;;;;;;;;;;;17.60;1.00;;;;;;5035037;28;19921;-52
2022/10/13 01:53:27;;;;;;;;;;;17.60;1.00;;;;;;5034497;28;19927;-51
2022/10/13 01:55:55;;;;;;;;;;;17.60;1.00;;;;;;5034581;28;20425;-51
2022/10/13 01:58:23;;;;;;;;;;;17.60;1.00;;;;;;5033842;28;19925;-51
2022/10/13 02:01:09;;;;;;;;;;;17.60;1.00;;;;;;5034570;28;20341;-45
2022/10/13 02:03:42;;;;;;;;;;;17.60;1.00;;;;;;5034178;28;19925;-53
2022/10/13 02:06:14;;;;;;;;;;;17.60;1.00;;;;;;5034666;28;19943;-56
2022/10/13 02:08:46;;;;;;;;;;;17.60;1.00;;;;;;5034666;28;20019;-53
2022/10/13 02:11:14;;;;;;;;;;;17.60;1.00;;;;;;5034389;28;19927;-52
2022/10/13 02:13:48;;;;;;;;;;;17.60;1.00;;;;;;5033906;28;19921;-50
2022/10/13 02:16:22;;;;;;;;;;;17.60;1.00;;;;;;5034305;28;19960;-51
2022/10/13 02:18:50;;;;;;;;;;;17.60;1.00;;;;;;5034369;28;20039;-52
2022/10/13 02:21:16;;;;;;;;;;;17.60;1.00;;;;;;5034499;28;19921;-52
2022/10/13 02:23:44;;;;;;;;;;;17.50;1.00;;;;;;5034269;28;19921;-48
2022/10/13 02:26:11;;;;;;;;;;;17.60;1.00;;;;;;5034136;28;19921;-51
2022/10/13 02:28:38;;;;;;;;;;;17.50;1.00;;;;;;5034169;28;20329;-50
2022/10/13 02:31:07;;;;;;;;;;;17.50;1.00;;;;;;5034322;28;19921;-53
2022/10/13 02:33:34;;;;;;;;;;;17.50;1.00;;;;;;5033611;28;19924;-51
2022/10/13 02:36:01;;;;;;;;;;;17.50;1.00;;;;;;5033819;28;19924;-53
2022/10/13 02:38:28;;;;;;;;;;;17.50;1.00;;;;;;5034286;28;19925;-51
2022/10/13 02:40:54;;;;;;;;;;;17.50;1.00;;;;;;5033760;28;20295;-49
2022/10/13 02:43:22;;;;;;;;;;;17.50;1.00;;;;;;5033881;28;19956;-46
2022/10/13 02:45:48;;;;;;;;;;;17.50;1.00;;;;;;5033921;28;19967;-51
2022/10/13 02:48:15;;;;;;;;;;;17.50;1.00;;;;;;5032498;28;19971;-50
2022/10/13 02:50:42;;;;;;;;;;;17.40;1.00;;;;;;5034226;28;19968;-48
2022/10/13 02:53:09;;;;;;;;;;;17.50;1.00;;;;;;5033409;28;19921;-53
2022/10/13 02:55:35;;;;;;;;;;;17.40;1.00;;;;;;5033507;28;19921;-51
2022/10/13 02:58:03;;;;;;;;;;;17.40;1.00;;;;;;5033679;28;19921;-52
2022/10/13 03:00:29;;;;;;;;;;;17.50;1.00;;;;;;5033581;28;19928;-51
2022/10/13 03:02:56;;;;;;;;;;;17.50;1.00;;;;;;5033216;28;19928;-50
2022/10/13 03:05:23;;;;;;;;;;;17.40;1.00;;;;;;5033581;28;20290;-54
2022/10/13 03:07:49;;;;;;;;;;;17.40;1.00;;;;;;5033345;28;19967;-51
2022/10/13 03:10:16;;;;;;;;;;;17.40;1.00;;;;;;5035083;28;19927;-54
2022/10/13 03:12:43;;;;;;;;;;;17.40;1.00;;;;;;5037238;28;19928;-56
2022/10/13 03:15:10;;;;;;;;;;;17.40;1.00;;;;;;5037525;28;20374;-52
2022/10/13 03:17:37;;;;;;;;;;;17.40;1.00;;;;;;5037571;28;19986;-53
2022/10/13 03:20:04;;;;;;;;;;;17.40;1.00;;;;;;5037615;28;19921;-49
2022/10/13 03:22:31;;;;;;;;;;;17.40;1.00;;;;;;5037058;28;19974;-52
2022/10/13 03:24:58;;;;;;;;;;;17.40;1.00;;;;;;5037442;28;19932;-53
2022/10/13 03:27:24;;;;;;;;;;;17.40;1.00;;;;;;5037337;28;19968;-51
2022/10/13 03:29:51;;;;;;;;;;;17.40;1.00;;;;;;5037549;28;20359;-51
2022/10/13 03:32:18;;;;;;;;;;;17.40;1.00;;;;;;5036998;28;19995;-56
2022/10/13 03:34:45;;;;;;;;;;;17.40;1.00;;;;;;5037390;28;19929;-52
2022/10/13 03:37:12;;;;;;;;;;;17.40;1.00;;;;;;5037077;28;19944;-45
2022/10/13 03:39:40;;;;;;;;;;;17.40;1.00;;;;;;5037374;28;19921;-50
2022/10/13 03:42:07;;;;;;;;;;;17.40;1.00;;;;;;5036913;28;20302;-54
2022/10/13 03:44:36;;;;;;;;;;;17.40;1.00;;;;;;5037141;28;19933;-51
2022/10/13 03:47:03;;;;;;;;;;;17.40;1.00;;;;;;5037073;28;19920;-54
2022/10/13 03:49:30;;;;;;;;;;;17.40;1.00;;;;;;5037561;28;19974;-57
2022/10/13 03:51:56;;;;;;;;;;;17.40;1.00;;;;;;5036602;28;19924;-52
2022/10/13 03:54:23;;;;;;;;;;;17.40;1.00;;;;;;5037282;28;20300;-52
2022/10/13 03:56:52;;;;;;;;;;;17.40;1.00;;;;;;5037652;28;19921;-51
2022/10/13 03:59:18;;;;;;;;;;;17.40;1.00;;;;;;5036627;28;20458;-55
2022/10/13 04:01:45;;;;;;;;;;;17.30;1.00;;;;;;5036607;28;19925;-57
2022/10/13 04:04:12;;;;;;;;;;;17.30;1.00;;;;;;5037301;28;19925;-53
2022/10/13 04:06:40;;;;;;;;;;;17.30;1.00;;;;;;5036872;28;20304;-52
2022/10/13 04:09:07;;;;;;;;;;;17.40;1.00;;;;;;5037070;28;19921;-49
2022/10/13 04:11:34;;;;;;;;;;;17.30;1.00;;;;;;5036524;28;19928;-53
2022/10/13 04:14:01;;;;;;;;;;;17.30;1.00;;;;;;5032990;28;20391;-49
2022/10/13 04:16:28;;;;;;;;;;;17.40;1.00;;;;;;5041348;28;19979;-49
2022/10/13 04:19:04;;;;;;;;;;;17.40;1.00;;;;;;5045439;28;19925;-49
2022/10/13 04:21:32;;;;;;;;;;;17.50;1.00;;;;;;5017322;28;19921;-52
2022/10/13 04:23:59;;;;;;;;;;;17.50;1.00;;;;;;5016180;28;19921;-47
2022/10/13 04:26:28;;;;;;;;;;;17.40;1.00;;;;;;5016186;28;19921;-53
2022/10/13 04:28:56;;;;;;;;;;;17.40;1.00;;;;;;5017106;28;19967;-55
2022/10/13 04:31:23;;;;;;;;;;;17.40;1.00;;;;;;5016609;28;20425;-57
2022/10/13 04:33:50;;;;;;;;;;;17.30;1.00;;;;;;5016041;28;19921;-51
2022/10/13 04:36:18;;;;;;;;;;;17.30;1.00;;;;;;5016661;28;19968;-50
2022/10/13 04:38:48;;;;;;;;;;;17.30;1.00;;;;;;5016602;28;20011;-53
2022/10/13 04:41:16;;;;;;;;;;;17.30;1.00;;;;;;5016129;28;19926;-54
2022/10/13 04:43:45;;;;;;;;;;;17.30;1.00;;;;;;5016424;28;20016;-54
2022/10/13 04:46:13;;;;;;;;;;;17.40;1.00;;;;;;5016347;28;19928;-57
2022/10/13 04:48:40;;;;;;;;;;;17.40;1.00;;;;;;5034493;28;19936;-56
2022/10/13 04:51:08;;;;;;;;;;;17.30;1.00;;;;;;5035750;28;19925;-52
2022/10/13 04:53:35;;;;;;;;;;;17.40;1.00;;;;;;5031995;28;20310;-47
2022/10/13 04:56:07;;;;;;;;;;;17.40;1.00;;;;;;5033390;28;19935;-54
2022/10/13 04:58:34;;;;;;;;;;;17.40;1.00;;;;;;5036256;28;19921;-48
2022/10/13 05:01:02;;;;;;;;;;;17.30;1.00;;;;;;5031426;28;19922;-48
2022/10/13 05:03:29;;;;;;;;;;;17.30;1.00;;;;;;5035621;28;20270;-53
2022/10/13 05:05:56;;;;;;;;;;;17.40;1.00;;;;;;5035508;28;20341;-50
2022/10/13 05:08:23;;;;;;;;;;;17.40;1.00;;;;;;5029774;28;20007;-50
2022/10/13 05:10:57;;;;;;;;;;;17.40;1.00;;;;;;5024760;28;19975;-51
2022/10/13 05:13:25;;;;;;;;;;;17.40;1.00;;;;;;5035202;28;20341;-50
2022/10/13 05:15:56;;;;;;;;;;;17.40;1.00;;;;;;5035464;28;19925;-50
2022/10/13 05:18:23;;;;;;;;;;;17.40;1.00;;;;;;5035534;28;19928;-49
2022/10/13 05:20:49;;;;;;;;;;;17.40;1.00;;;;;;5034901;28;19921;-52
2022/10/13 05:23:16;;;;;;;;;;;17.40;1.00;;;;;;5034773;28;19935;-48
2022/10/13 05:25:43;;;;;;;;;;;17.30;1.00;;;;;;5035068;28;19960;-48
2022/10/13 05:28:12;;;;;;;;;;;17.40;1.00;;;;;;5035565;28;19956;-54
2022/10/13 05:30:39;;;;;;;;;;;17.30;1.00;;;;;;5035470;28;20012;-51
2022/10/13 05:33:05;;;;;;;;;;;17.30;1.00;;;;;;5034592;28;19925;-50
2022/10/13 05:35:32;;;;;;;;;;;17.30;1.00;;;;;;5035080;28;19921;-49
2022/10/13 05:37:59;;;;;;;;;;;17.30;1.00;;;;;;5034828;28;19952;-50
2022/10/13 05:40:27;;;;;;;;;;;17.30;1.00;;;;;;5035042;28;19967;-54
2022/10/13 05:42:59;;;;;;;;;;;17.30;1.00;;;;;;5034813;28;19928;-54
2022/10/13 05:45:28;;;;;;;;;;;17.30;1.00;;;;;;5034866;28;19921;-50
2022/10/13 05:47:55;;;;;;;;;;;17.30;1.00;;;;;;5035114;28;19925;-51
2022/10/13 05:50:21;;;;;;;;;;;17.30;1.00;;;;;;5034810;28;19921;-52
2022/10/13 05:52:49;;;;;;;;;;;17.30;1.00;;;;;;5034338;28;19971;-49
2022/10/13 05:55:16;;;;;;;;;;;17.30;1.00;;;;;;5034678;28;20287;-49
2022/10/13 05:57:46;;;;;;;;;;;17.30;1.00;;;;;;5034775;28;19943;-52
2022/10/13 06:00:14;;;;;;;;;;;17.30;1.00;;;;;;5034199;28;20429;-53
2022/10/13 06:02:45;;;;;;;;;;;17.30;1.00;;;;;;5034300;28;20275;-51
2022/10/13 06:05:13;;;;;;;;;;;17.30;1.00;;;;;;5034757;28;19921;-53
2022/10/13 06:07:39;;;;;;;;;;;17.30;1.00;;;;;;5034558;28;19975;-48
2022/10/13 06:10:06;;;;;;;;;;;17.30;1.00;;;;;;5034230;28;19921;-52
2022/10/13 06:12:35;;;;;;;;;;;17.30;1.00;;;;;;5033912;28;19925;-53
2022/10/13 06:15:02;;;;;;;;;;;17.30;1.00;;;;;;5034554;28;19927;-51
2022/10/13 06:17:28;;;;;;;;;;;17.30;1.00;;;;;;5034983;28;19967;-55
2022/10/13 06:19:55;;;;;;;;;;;17.30;1.00;;;;;;5034061;28;19925;-49
2022/10/13 06:22:22;;;;;;;;;;;17.30;1.00;;;;;;5033744;28;19921;-56
2022/10/13 06:24:50;;;;;;;;;;;17.30;1.00;;;;;;5033958;28;20282;-56
2022/10/13 06:27:17;;;;;;;;;;;17.30;1.00;;;;;;5029992;28;19921;-53
2022/10/13 06:29:45;;;;;;;;;;;17.30;1.00;;;;;;5025815;28;19935;-54
2022/10/13 06:32:12;;;;;;;;;;;17.30;1.00;;;;;;5026417;28;19921;-52
2022/10/13 06:34:39;;;;;;;;;;;17.30;1.00;;;;;;5028586;28;19921;-54
2022/10/13 06:37:06;;;;;;;;;;;17.30;1.00;;;;;;5033719;28;19971;-54
2022/10/13 06:39:33;;;;;;;;;;;17.30;1.00;;;;;;5033760;28;20382;-53
2022/10/13 06:42:02;;;;;;;;;;;17.30;1.00;;;;;;5033631;28;20387;-51
2022/10/13 06:44:30;;;;;;;;;;;17.30;1.00;;;;;;5033130;28;19936;-51
2022/10/13 06:47:01;;;;;;;;;;;17.30;1.00;;;;;;5033968;28;19925;-55
2022/10/13 06:49:28;;;;;;;;;;;17.30;1.00;;;;;;5033618;28;19921;-53
2022/10/13 06:51:55;;;;;;;;;;;17.30;1.00;;;;;;5033582;28;19971;-53
2022/10/13 06:54:22;;;;;;;;;;;17.30;1.00;;;;;;5033512;28;19925;-51
2022/10/13 06:56:48;;;;;;;;;;;17.30;1.00;;;;;;5034220;28;19968;-51
2022/10/13 06:59:15;;;;;;;;;;;17.30;1.00;;;;;;5033711;28;19979;-48
2022/10/13 07:01:44;;;;;;;;;;;17.30;1.00;;;;;;5033553;28;20470;-50
2022/10/13 07:04:11;;;;;;;;;;;17.30;1.00;;;;;;5033555;28;20007;-52
2022/10/13 07:06:37;;;;;;;;;;;17.30;1.00;;;;;;5033730;28;20355;-51
2022/10/13 07:09:05;;;;;;;;;;;17.30;1.00;;;;;;5033639;28;20002;-50
2022/10/13 07:11:32;;;;;;;;;;;17.30;1.00;;;;;;5033373;28;19976;-49
2022/10/13 07:13:59;;;;;;;;;;;17.30;1.00;;;;;;5033101;28;20367;-50
2022/10/13 07:16:31;;;;;;;;;;;17.40;1.00;;;;;;5031584;28;20343;-48
2022/10/13 07:18:57;;;;;;;;;;;17.30;1.00;;;;;;5030147;28;19929;-48
2022/10/13 07:21:24;;;;;;;;;;;17.30;1.00;;;;;;5033328;28;19921;-51
2022/10/13 07:23:51;;;;;;;;;;;17.30;1.00;;;;;;5032825;28;19992;-50
2022/10/13 07:26:17;;;;;;;;;;;17.30;1.00;;;;;;5033232;28;19921;-53
2022/10/13 07:28:44;;;;;;;;;;;17.30;1.00;;;;;;5033128;28;20318;-47
2022/10/13 07:31:13;;;;;;;;;;;17.40;1.00;;;;;;5033573;28;19921;-47
2022/10/13 07:33:40;;;;;;;;;;;17.30;1.00;;;;;;5032892;28;20445;-50
2022/10/13 07:36:08;;;;;;;;;;;17.30;1.00;;;;;;5033643;28;19928;-48
2022/10/13 07:38:35;;;;;;;;;;;17.30;1.00;;;;;;5033182;28;19975;-48
2022/10/13 07:41:02;;;;;;;;;;;17.30;1.00;;;;;;5033796;28;19967;-49
2022/10/13 07:43:29;;;;;;;;;;;17.30;1.00;;;;;;5032944;28;20326;-48
2022/10/13 07:45:58;;;;;;;;;;;17.30;1.00;;;;;;5033213;28;19921;-49
2022/10/13 07:48:26;;;;;;;;;;;17.40;1.00;;;;;;5033555;28;19952;-45
2022/10/13 07:50:55;;;;;;;;;;;17.30;1.00;;;;;;5031872;28;19924;-50
2022/10/13 07:53:21;;;;;;;;;;;17.30;1.00;;;;;;5032754;28;19975;-49
2022/10/13 07:55:48;;;;;;;;;;;17.40;1.00;;;;;;5033834;28;20383;-48
2022/10/13 07:58:15;;;;;;;;;;;17.30;1.00;;;;;;5036816;28;20374;-51
2022/10/13 08:00:41;;;;;;;;;;;17.30;1.00;;;;;;5036631;28;19928;-43
2022/10/13 08:03:08;;;;;;;;;;;17.30;1.00;;;;;;5036429;28;19921;-47
2022/10/13 08:05:36;;;;;;;;;;;17.30;1.00;;;;;;5036654;28;19931;-51
2022/10/13 08:08:03;;;;;;;;;;;17.40;1.00;;;;;;5036771;28;19921;-47
2022/10/13 08:10:30;;;;;;;;;;;17.30;1.00;;;;;;5036603;28;19928;-47
2022/10/13 08:12:57;;;;;;;;;;;17.30;1.00;;;;;;5036404;28;19933;-45
2022/10/13 08:15:24;;;;;;;;;;;17.40;1.00;;;;;;5036341;28;19991;-50
2022/10/13 08:17:51;;;;;;;;;;;17.40;1.00;;;;;;5036437;28;19921;-51
2022/10/13 08:20:18;;;;;;;;;;;17.30;1.00;;;;;;5036863;28;19925;-46
2022/10/13 08:22:45;;;;;;;;;;;17.40;1.00;;;;;;5036135;28;19958;-48
2022/10/13 08:25:12;;;;;;;;;;;17.30;1.00;;;;;;5036351;28;19975;-54
2022/10/13 08:27:39;;;;;;;;;;;17.40;1.00;;;;;;5036123;28;19921;-52
2022/10/13 08:30:17;;;;;;;;;;;17.40;1.00;;;;;;5036161;28;19928;-52
2022/10/13 08:32:44;;;;;;;;;;;17.40;1.00;;;;;;5035742;28;19921;-53
2022/10/13 08:35:10;;;;;;;;;;;17.40;1.00;;;;;;5036436;28;19925;-55
2022/10/13 08:37:37;;;;;;;;;;;17.30;1.00;;;;;;5035994;28;20001;-52
2022/10/13 08:40:04;;;;;;;;;;;17.40;1.00;;;;;;5036264;28;20377;-53
2022/10/13 08:42:31;;;;;;;;;;;17.40;1.00;;;;;;5035572;28;19948;-56
2022/10/13 08:44:59;;;;;;;;;;;17.30;1.00;;;;;;5035775;28;19921;-54
2022/10/13 08:48:07;;;;;;;;;;;17.30;1.00;;;;;;5035810;28;19929;-55
2022/10/13 08:50:37;;;;;;;;;;;17.40;1.00;;;;;;5036011;28;19921;-54
2022/10/13 08:53:09;;;;;;;;;;;17.30;1.00;;;;;;5035288;28;19936;-52
2022/10/13 08:55:36;;;;;;;;;;;17.30;1.00;;;;;;5035682;28;19921;-53
2022/10/13 08:58:08;;;;;;;;;;;17.30;1.00;;;;;;5035865;28;19968;-50
2022/10/13 09:00:35;;;;;;;;;;;17.30;1.00;;;;;;5035747;28;20290;-51
2022/10/13 09:03:16;;;;;;;;;;;17.30;1.00;;;;;;5035326;28;19928;-52
2022/10/13 09:05:48;;;;;;;;;;;17.30;1.00;;;;;;5035546;28;19968;-51
2022/10/13 09:08:18;;;;;;;;;;;17.40;1.00;;;;;;5035115;28;19921;-50
2022/10/13 09:10:51;;;;;;;;;;;17.30;1.00;;;;;;5035731;28;19932;-50
2022/10/13 09:13:18;;;;;;;;;;;17.40;1.00;;;;;;5035229;28;19921;-53
2022/10/13 09:15:46;;;;;;;;;;;17.40;1.00;;;;;;5035735;28;19921;-53
2022/10/13 09:18:15;;;;;;;;;;;17.30;1.00;;;;;;5035318;28;20295;-48
2022/10/13 09:20:41;;;;;;;;;;;17.30;1.00;;;;;;5035093;28;19925;-50
2022/10/13 09:23:19;;;;;;;;;;;17.40;1.00;;;;;;5035064;28;19921;-52
2022/10/13 09:25:49;;;;;;;;;;;17.30;1.00;;;;;;5035322;28;19925;-50
2022/10/13 09:28:22;;;;;;;;;;;17.30;1.00;;;;;;5033710;28;19925;-51
2022/10/13 09:30:59;;;;;;;;;;;17.30;1.00;;;;;;5035103;28;20426;-54
2022/10/13 09:33:26;;;;;;;;;;;17.30;1.00;;;;;;5034632;28;20363;-52
2022/10/13 09:35:59;;;;;;;;;;;17.30;1.00;;;;;;5034932;28;19921;-53
2022/10/13 09:38:26;;;;;;;;;;;17.30;1.00;;;;;;5034794;28;19951;-51
2022/10/13 09:40:58;;;;;;;;;;;17.30;1.00;;;;;;5034723;28;20394;-52
2022/10/13 09:43:42;;;;;;;;;;;17.30;1.00;;;;;;5034477;28;19925;-53
2022/10/13 09:46:19;;;;;;;;;;;17.40;1.00;;;;;;5034922;28;19966;-54
2022/10/13 09:48:56;;;;;;;;;;;17.30;1.00;;;;;;5034675;28;19925;-52
2022/10/13 09:51:30;;;;;;;;;;;17.40;1.00;;;;;;5034549;28;19924;-50
2022/10/13 09:53:56;;;;;;;;;;;17.40;1.00;;;;;;5034321;28;19921;-50
2022/10/13 09:56:32;;;;;;;;;;;17.30;1.00;;;;;;5034651;28;19967;-49
2022/10/13 09:59:01;;;;;;;;;;;17.30;1.00;;;;;;5034473;28;19921;-50
2022/10/13 10:01:32;;;;;;;;;;;17.40;1.00;;;;;;5034342;28;19927;-55
2022/10/13 10:04:00;;;;;;;;;;;17.40;1.00;;;;;;5034137;28;19921;-53
2022/10/13 10:06:27;;;;;;;;;;;17.40;1.00;;;;;;5034687;28;19952;-57
2022/10/13 10:09:14;;;;;;;;;;;17.40;1.00;;;;;;5034316;28;20340;-51
2022/10/13 10:11:43;;;;;;;;;;;17.40;1.00;;;;;;5034074;28;19928;-44
2022/10/13 10:14:24;;;;;;;;;;;17.40;1.00;;;;;;5034221;28;19952;-49
2022/10/13 10:16:53;;;;;;;;;;;17.40;1.00;;;;;;5034391;28;20011;-48
2022/10/13 10:19:27;;;;;;;;;;;17.40;1.00;;;;;;5033270;28;19921;-51
2022/10/13 10:22:07;;;;;;;;;;;17.40;1.00;;;;;;5033862;28;19927;-54
2022/10/13 10:25:00;;;;;;;;;;;17.50;1.00;;;;;;5033979;28;19925;-46
2022/10/13 10:27:41;;;;;;;;;;;17.50;1.00;;;;;;5018302;28;19921;-52
2022/10/13 10:30:17;;;;;;;;;;;17.50;1.00;;;;;;5033989;28;19921;-53
2022/10/13 10:33:22;;;;;;;;;;;17.50;1.00;;;;;;5033531;28;20322;-52
2022/10/13 10:36:03;;;;;;;;;;;17.50;1.00;;;;;;4992278;28;19922;-50
2022/10/13 10:38:42;;;;;;;;;;;17.50;1.00;;;;;;4992692;28;19976;-49
2022/10/13 10:41:17;;;;;;;;;;;17.50;1.00;;;;;;5020069;28;19920;-49
2022/10/13 10:43:44;;;;;;;;;;;17.50;1.00;;;;;;5033465;28;19928;-50
2022/10/13 10:46:20;;;;;;;;;;;17.50;1.00;;;;;;5033576;28;19948;-52
2022/10/13 10:48:49;;;;;;;;;;;17.50;1.00;;;;;;5033669;28;20259;-47
2022/10/13 10:51:17;;;;;;;;;;;17.60;1.00;;;;;;5034145;28;20388;-51
2022/10/13 10:54:02;;;;;;;;;;;17.60;1.00;;;;;;5033703;28;20007;-44
2022/10/13 10:56:29;;;;;;;;;;;17.60;1.00;;;;;;5033499;28;19921;-47
2022/10/13 10:59:00;;;;;;;;;;;17.60;1.00;;;;;;5033515;28;19921;-52
2022/10/13 11:01:30;;;;;;;;;;;17.60;1.00;;;;;;5033453;28;19921;-47
2022/10/13 11:04:15;;;;;;;;;;;17.60;1.00;;;;;;5033294;28;19925;-46
2022/10/13 11:06:42;;;;;;;;;;;17.60;1.00;;;;;;5033901;28;19928;-50
2022/10/13 11:09:10;;;;;;;;;;;17.60;1.00;;;;;;5033330;28;19967;-44
2022/10/13 11:11:41;;;;;;;;;;;17.60;1.00;;;;;;5033299;28;19925;-48
2022/10/13 11:14:10;;;;;;;;;;;17.60;1.00;;;;;;5033567;28;19921;-51
2022/10/13 11:17:01;;;;;;;;;;;17.60;1.00;;;;;;5033779;28;19921;-46
2022/10/13 11:19:28;;;;;;;;;;;17.60;1.00;;;;;;5033319;28;19944;-50
2022/10/13 11:21:58;;;;;;;;;;;17.60;1.00;;;;;;5033511;28;19933;-49
2022/10/13 11:24:40;;;;;;;;;;;17.60;1.00;;;;;;5033560;28;19921;-52
2022/10/13 11:27:14;;;;;;;;;;;17.60;1.00;;;;;;5033567;28;20310;-49
2022/10/13 11:29:56;;;;;;;;;;;17.60;1.00;;;;;;5033296;28;19943;-51
2022/10/13 11:32:26;;;;;;;;;;;17.60;1.00;;;;;;5036748;28;19952;-49
2022/10/13 11:35:05;;;;;;;;;;;17.70;1.00;;;;;;5037277;28;19947;-53
2022/10/13 11:37:50;;;;;;;;;;;17.70;1.00;;;;;;5037127;28;20008;-53
2022/10/13 11:40:34;;;;;;;;;;;17.70;1.00;;;;;;5037379;28;20003;-49
2022/10/13 11:43:06;;;;;;;;;;;17.70;1.00;;;;;;5036680;28;19964;-50
2022/10/13 11:45:48;;;;;;;;;;;17.70;1.00;;;;;;5037722;28;20250;-54
2022/10/13 11:48:38;;;;;;;;;;;17.70;1.00;;;;;;5037075;28;19921;-46
2022/10/13 11:51:11;;;;;;;;;;;17.70;1.00;;;;;;5032113;28;19932;-51
2022/10/13 11:53:57;;;;;;;;;;;17.70;1.00;;;;;;5036704;28;20024;-54
2022/10/13 11:56:43;;;;;;;;;;;17.70;1.00;;;;;;5036813;28;19921;-52
2022/10/13 11:59:18;;;;;;;;;;;17.70;1.00;;;;;;5036673;28;19922;-53
2022/10/13 12:01:45;;;;;;;;;;;17.70;1.00;;;;;;5036373;28;19921;-48
2022/10/13 12:04:14;;;;;;;;;;;17.80;1.00;;;;;;5036732;28;19944;-50
2022/10/13 12:06:41;;;;;;;;;;;17.70;1.00;;;;;;5036795;28;19964;-52
2022/10/13 12:09:16;;;;;;;;;;;17.80;1.00;;;;;;5036492;28;20378;-51
2022/10/13 12:11:43;;;;;;;;;;;17.80;1.00;;;;;;5036507;28;19925;-49
2022/10/13 12:14:20;;;;;;;;;;;17.80;1.00;;;;;;5036499;28;19929;-52
2022/10/13 12:16:53;;;;;;;;;;;17.80;1.00;;;;;;5036912;28;19924;-55
2022/10/13 12:19:26;;;;;;;;;;;17.80;1.00;;;;;;5036859;28;19921;-50
2022/10/13 12:21:55;;;;;;;;;;;17.80;1.00;;;;;;5036016;28;19928;-52
2022/10/13 12:24:22;;;;;;;;;;;17.80;1.00;;;;;;5036129;28;19921;-49
2022/10/13 12:26:50;;;;;;;;;;;17.80;1.00;;;;;;5036515;28;19920;-50
2022/10/13 12:29:18;;;;;;;;;;;17.80;1.00;;;;;;5036098;28;19979;-49
2022/10/13 12:31:46;;;;;;;;;;;17.80;1.00;;;;;;5035828;28;19921;-51
2022/10/13 12:34:24;;;;;;;;;;;17.80;1.00;;;;;;5036034;28;19986;-52
2022/10/13 12:36:58;;;;;;;;;;;17.90;1.00;;;;;;5036193;28;20272;-48
2022/10/13 12:39:26;;;;;;;;;;;17.90;1.00;;;;;;5036066;28;19967;-49
2022/10/13 12:41:55;;;;;;;;;;;17.90;1.00;;;;;;5035589;28;20298;-51
2022/10/13 12:44:26;;;;;;;;;;;17.90;1.00;;;;;;5035741;28;19921;-50
2022/10/13 12:46:57;;;;;;;;;;;17.90;1.00;;;;;;5036405;28;19921;-48
2022/10/13 12:49:28;;;;;;;;;;;17.90;1.00;;;;;;5035938;28;19928;-51
2022/10/13 12:52:02;;;;;;;;;;;17.90;1.00;;;;;;5035569;28;19921;-46
2022/10/13 12:54:30;;;;;;;;;;;17.90;1.00;;;;;;5035780;28;20333;-56
2022/10/13 12:56:58;;;;;;;;;;;17.90;1.00;;;;;;5035959;28;20027;-48
2022/10/13 12:59:26;;;;;;;;;;;17.90;1.00;;;;;;5035513;28;19928;-46
2022/10/13 13:01:55;;;;;;;;;;;17.90;1.00;;;;;;5035222;28;19971;-50
2022/10/13 13:04:21;;;;;;;;;;;17.90;1.00;;;;;;5035660;28;19921;-53
2022/10/13 13:06:53;;;;;;;;;;;17.90;1.00;;;;;;5035878;28;19956;-47
2022/10/13 13:09:28;;;;;;;;;;;17.90;1.00;;;;;;5035649;28;20000;-53
2022/10/13 13:12:07;;;;;;;;;;;17.90;1.00;;;;;;5035542;28;20358;-51
2022/10/13 13:14:35;;;;;;;;;;;17.90;1.00;;;;;;5035345;28;19936;-52
2022/10/13 13:17:04;;;;;;;;;;;17.90;1.00;;;;;;5035212;28;19974;-49
2022/10/13 13:19:32;;;;;;;;;;;17.90;1.00;;;;;;5035154;28;19920;-52
2022/10/13 13:21:58;;;;;;;;;;;17.90;1.00;;;;;;5035300;28;20290;-49
2022/10/13 13:24:25;;;;;;;;;;;17.90;1.00;;;;;;5035173;28;19974;-52
2022/10/13 13:27:10;;;;;;;;;;;17.90;1.00;;;;;;5035361;28;19953;-50
2022/10/13 13:29:37;;;;;;;;;;;17.90;1.00;;;;;;5021349;28;19932;-49
2022/10/13 13:32:04;;;;;;;;;;;17.90;1.00;;;;;;5015073;28;20362;-53
2022/10/13 13:34:31;;;;;;;;;;;17.90;1.00;;;;;;5015214;28;19921;-52
2022/10/13 13:36:59;;;;;;;;;;;17.90;1.00;;;;;;5015007;28;19922;-50
2022/10/13 13:39:26;;;;;;;;;;;17.90;1.00;;;;;;5024991;28;20293;-52
2022/10/13 13:41:53;;;;;;;;;;;17.90;1.00;;;;;;5034048;28;19925;-52
2022/10/13 13:44:19;;;;;;;;;;;17.90;1.00;;;;;;5035014;28;19924;-54
2022/10/13 13:46:47;;;;;;;;;;;17.90;1.00;;;;;;5035122;28;19924;-53
2022/10/13 13:49:13;;;;;;;;;;;17.90;1.00;;;;;;5034604;28;19920;-51
2022/10/13 13:51:40;;;;;;;;;;;18.00;1.00;;;;;;5034419;28;19925;-51
2022/10/13 13:54:07;;;;;;;;;;;18.00;1.00;;;;;;5034310;28;19921;-52
2022/10/13 13:56:34;;;;;;;;;;;18.00;1.00;;;;;;5034575;28;20306;-50
2022/10/13 13:59:00;;;;;;;;;;;18.00;1.00;;;;;;5034749;28;19927;-51
2022/10/13 14:01:27;;;;;;;;;;;18.00;1.00;;;;;;5034863;28;20426;-50
2022/10/13 14:03:54;;;;;;;;;;;18.00;1.00;;;;;;5034100;28;19928;-47
2022/10/13 14:06:21;;;;;;;;;;;18.00;1.00;;;;;;5034307;28;19988;-53
2022/10/13 14:08:48;;;;;;;;;;;18.00;1.00;;;;;;5034486;28;19921;-48
2022/10/13 14:11:15;;;;;;;;;;;18.00;1.00;;;;;;5031221;28;19947;-51
2022/10/13 14:13:41;;;;;;;;;;;18.00;1.00;;;;;;5031942;28;19987;-48
2022/10/13 14:16:13;;;;;;;;;;;17.90;1.00;;;;;;5031306;28;19921;-45
2022/10/13 14:18:40;;;;;;;;;;;17.90;1.00;;;;;;5034122;28;19925;-53
2022/10/13 14:21:07;;;;;;;;;;;17.90;1.00;;;;;;5034152;28;19925;-52
2022/10/13 14:23:34;;;;;;;;;;;17.90;1.00;;;;;;5033676;28;19920;-52
2022/10/13 14:26:04;;;;;;;;;;;17.90;1.00;;;;;;5032933;28;19932;-53
2022/10/13 14:28:30;;;;;;;;;;;17.90;1.00;;;;;;5032412;28;19924;-50
2022/10/13 14:30:57;;;;;;;;;;;17.90;1.00;;;;;;5030322;28;20621;-51
2022/10/13 14:33:25;;;;;;;;;;;17.90;1.00;;;;;;5037129;28;19927;-47
2022/10/13 14:35:57;;;;;;;;;;;17.90;1.00;;;;;;5053292;28;19927;-54
2022/10/13 14:38:24;;;;;;;;;;;17.90;1.00;;;;;;5053445;28;19974;-51
2022/10/13 14:40:51;;;;;;;;;;;17.90;1.00;;;;;;5053583;28;20425;-54
2022/10/13 14:43:17;;;;;;;;;;;17.90;1.00;;;;;;5053401;28;19920;-51
2022/10/13 14:45:44;;;;;;;;;;;17.90;1.00;;;;;;5053555;28;19921;-50